sensor_id;sensor_type;location;lat;lon;timestamp;P1;durP1;ratioP1;P2;durP2;ratioP2
63284;SDS011;49409;55.708;37.522;2022-09-19T00:00:26;5.40;;;3.15;;
63284;SDS011;49409;55.708;37.522;2022-09-19T00:02:53;4.65;;;3.53;;
63284;SDS011;49409;55.708;37.522;2022-09-19T00:05:19;5.93;;;3.50;;
63284;SDS011;49409;55.708;37.522;2022-09-19T00:07:46;5.97;;;3.17;;
63284;SDS011;49409;55.708;37.522;2022-09-19T00:10:12;6.43;;;3.45;;
63284;SDS011;49409;55.708;37.522;2022-09-19T00:12:38;6.68;;;3.47;;
63284;SDS011;49409;55.708;37.522;2022-09-19T00:15:03;6.25;;;3.45;;
63284;SDS011;49409;55.708;37.522;2022-09-19T00:17:29;6.80;;;4.10;;
63284;SDS011;49409;55.708;37.522;2022-09-19T00:19:55;6.40;;;3.47;;
63284;SDS011;49409;55.708;37.522;2022-09-19T00:22:20;5.63;;;3.70;;
63284;SDS011;49409;55.708;37.522;2022-09-19T00:24:46;5.78;;;3.60;;
63284;SDS011;49409;55.708;37.522;2022-09-19T00:27:24;5.68;;;3.83;;
63284;SDS011;49409;55.708;37.522;2022-09-19T00:29:52;6.55;;;3.47;;
63284;SDS011;49409;55.708;37.522;2022-09-19T00:32:19;8.43;;;3.85;;
63284;SDS011;49409;55.708;37.522;2022-09-19T00:34:47;7.88;;;4.53;;
63284;SDS011;49409;55.708;37.522;2022-09-19T00:37:14;7.75;;;4.65;;
63284;SDS011;49409;55.708;37.522;2022-09-19T00:39:42;7.32;;;4.10;;
63284;SDS011;49409;55.708;37.522;2022-09-19T00:42:12;8.48;;;4.40;;
63284;SDS011;49409;55.708;37.522;2022-09-19T00:47:11;7.95;;;4.00;;
63284;SDS011;49409;55.708;37.522;2022-09-19T00:49:42;7.28;;;4.30;;
63284;SDS011;49409;55.708;37.522;2022-09-19T00:52:16;6.43;;;3.58;;
63284;SDS011;49409;55.708;37.522;2022-09-19T00:54:47;8.32;;;4.43;;
63284;SDS011;49409;55.708;37.522;2022-09-19T00:57:15;6.85;;;3.70;;
63284;SDS011;49409;55.708;37.522;2022-09-19T00:59:42;7.25;;;3.88;;
63284;SDS011;49409;55.708;37.522;2022-09-19T01:02:12;8.30;;;4.28;;
63284;SDS011;49409;55.708;37.522;2022-09-19T01:04:38;7.32;;;4.18;;
63284;SDS011;49409;55.708;37.522;2022-09-19T01:12:21;7.43;;;3.88;;
63284;SDS011;49409;55.708;37.522;2022-09-19T01:22:29;7.63;;;4.57;;
63284;SDS011;49409;55.708;37.522;2022-09-19T01:25:22;8.75;;;5.05;;
63284;SDS011;49409;55.708;37.522;2022-09-19T01:28:01;6.95;;;3.97;;
63284;SDS011;49409;55.708;37.522;2022-09-19T01:30:37;8.73;;;4.10;;
63284;SDS011;49409;55.708;37.522;2022-09-19T01:33:12;8.52;;;4.60;;
63284;SDS011;49409;55.708;37.522;2022-09-19T01:35:47;7.60;;;4.13;;
63284;SDS011;49409;55.708;37.522;2022-09-19T01:38:25;7.47;;;4.00;;
63284;SDS011;49409;55.708;37.522;2022-09-19T01:40:53;8.60;;;3.65;;
63284;SDS011;49409;55.708;37.522;2022-09-19T01:43:20;6.60;;;3.30;;
63284;SDS011;49409;55.708;37.522;2022-09-19T01:45:46;8.13;;;3.55;;
63284;SDS011;49409;55.708;37.522;2022-09-19T01:48:26;5.60;;;3.05;;
63284;SDS011;49409;55.708;37.522;2022-09-19T02:00:16;6.00;;;3.03;;
63284;SDS011;49409;55.708;37.522;2022-09-19T02:05:33;6.50;;;3.58;;
63284;SDS011;49409;55.708;37.522;2022-09-19T02:08:05;6.50;;;3.50;;
63284;SDS011;49409;55.708;37.522;2022-09-19T02:10:52;5.55;;;3.42;;
63284;SDS011;49409;55.708;37.522;2022-09-19T02:13:23;5.97;;;3.17;;
63284;SDS011;49409;55.708;37.522;2022-09-19T02:15:57;7.88;;;3.75;;
63284;SDS011;49409;55.708;37.522;2022-09-19T02:18:38;6.55;;;3.80;;
63284;SDS011;49409;55.708;37.522;2022-09-19T02:21:13;6.60;;;3.25;;
63284;SDS011;49409;55.708;37.522;2022-09-19T02:23:47;6.40;;;3.40;;
63284;SDS011;49409;55.708;37.522;2022-09-19T02:26:17;6.80;;;3.65;;
63284;SDS011;49409;55.708;37.522;2022-09-19T02:28:46;6.85;;;3.15;;
63284;SDS011;49409;55.708;37.522;2022-09-19T02:31:18;5.55;;;3.25;;
63284;SDS011;49409;55.708;37.522;2022-09-19T02:33:46;6.55;;;3.78;;
63284;SDS011;49409;55.708;37.522;2022-09-19T02:41:35;5.50;;;3.53;;
63284;SDS011;49409;55.708;37.522;2022-09-19T02:46:32;6.38;;;3.17;;
63284;SDS011;49409;55.708;37.522;2022-09-19T02:49:08;6.43;;;3.28;;
63284;SDS011;49409;55.708;37.522;2022-09-19T02:51:43;5.75;;;3.38;;
63284;SDS011;49409;55.708;37.522;2022-09-19T02:54:15;5.53;;;3.00;;
63284;SDS011;49409;55.708;37.522;2022-09-19T02:56:44;3.47;;;2.55;;
63284;SDS011;49409;55.708;37.522;2022-09-19T02:59:18;6.00;;;3.17;;
63284;SDS011;49409;55.708;37.522;2022-09-19T03:01:52;6.05;;;3.20;;
63284;SDS011;49409;55.708;37.522;2022-09-19T03:04:25;5.50;;;3.03;;
63284;SDS011;49409;55.708;37.522;2022-09-19T03:06:58;5.93;;;3.20;;
63284;SDS011;49409;55.708;37.522;2022-09-19T03:09:29;6.93;;;2.83;;
63284;SDS011;49409;55.708;37.522;2022-09-19T03:11:58;6.88;;;3.63;;
63284;SDS011;49409;55.708;37.522;2022-09-19T03:14:31;7.45;;;3.40;;
63284;SDS011;49409;55.708;37.522;2022-09-19T03:16:57;7.82;;;3.05;;
63284;SDS011;49409;55.708;37.522;2022-09-19T03:19:26;6.10;;;3.30;;
63284;SDS011;49409;55.708;37.522;2022-09-19T03:21:53;5.95;;;2.80;;
63284;SDS011;49409;55.708;37.522;2022-09-19T03:24:20;6.80;;;3.25;;
63284;SDS011;49409;55.708;37.522;2022-09-19T03:26:46;5.13;;;3.00;;
63284;SDS011;49409;55.708;37.522;2022-09-19T03:29:13;5.55;;;2.90;;
63284;SDS011;49409;55.708;37.522;2022-09-19T03:31:39;7.68;;;4.13;;
63284;SDS011;49409;55.708;37.522;2022-09-19T03:34:04;6.20;;;2.90;;
63284;SDS011;49409;55.708;37.522;2022-09-19T03:36:31;6.18;;;2.85;;
63284;SDS011;49409;55.708;37.522;2022-09-19T03:39:00;5.78;;;2.85;;
63284;SDS011;49409;55.708;37.522;2022-09-19T03:41:27;6.07;;;2.80;;
63284;SDS011;49409;55.708;37.522;2022-09-19T03:43:55;4.82;;;2.72;;
63284;SDS011;49409;55.708;37.522;2022-09-19T03:46:25;4.47;;;2.55;;
63284;SDS011;49409;55.708;37.522;2022-09-19T03:48:52;6.53;;;2.65;;
63284;SDS011;49409;55.708;37.522;2022-09-19T03:51:18;5.13;;;2.45;;
63284;SDS011;49409;55.708;37.522;2022-09-19T03:53:44;4.22;;;2.30;;
63284;SDS011;49409;55.708;37.522;2022-09-19T03:56:11;3.08;;;2.00;;
63284;SDS011;49409;55.708;37.522;2022-09-19T03:58:38;4.28;;;2.45;;
63284;SDS011;49409;55.708;37.522;2022-09-19T04:03:54;5.85;;;2.22;;
63284;SDS011;49409;55.708;37.522;2022-09-19T04:06:20;2.40;;;1.33;;
63284;SDS011;49409;55.708;37.522;2022-09-19T04:08:45;3.03;;;1.38;;
63284;SDS011;49409;55.708;37.522;2022-09-19T04:11:11;1.50;;;1.20;;
63284;SDS011;49409;55.708;37.522;2022-09-19T04:13:37;1.30;;;1.20;;
63284;SDS011;49409;55.708;37.522;2022-09-19T04:16:03;1.90;;;1.23;;
63284;SDS011;49409;55.708;37.522;2022-09-19T04:18:31;2.05;;;1.05;;
63284;SDS011;49409;55.708;37.522;2022-09-19T04:20:58;1.85;;;0.93;;
63284;SDS011;49409;55.708;37.522;2022-09-19T04:23:24;1.50;;;1.13;;
63284;SDS011;49409;55.708;37.522;2022-09-19T04:25:51;0.65;;;0.63;;
63284;SDS011;49409;55.708;37.522;2022-09-19T04:28:16;1.85;;;1.10;;
63284;SDS011;49409;55.708;37.522;2022-09-19T04:30:43;1.23;;;0.95;;
63284;SDS011;49409;55.708;37.522;2022-09-19T04:33:10;1.30;;;0.88;;
63284;SDS011;49409;55.708;37.522;2022-09-19T04:35:37;1.42;;;0.75;;
63284;SDS011;49409;55.708;37.522;2022-09-19T04:38:04;0.95;;;0.70;;
63284;SDS011;49409;55.708;37.522;2022-09-19T04:40:37;1.17;;;0.80;;
63284;SDS011;49409;55.708;37.522;2022-09-19T04:43:04;1.27;;;0.82;;
63284;SDS011;49409;55.708;37.522;2022-09-19T04:45:30;0.85;;;0.77;;
63284;SDS011;49409;55.708;37.522;2022-09-19T04:47:56;0.98;;;0.77;;
63284;SDS011;49409;55.708;37.522;2022-09-19T04:50:23;2.03;;;0.88;;
63284;SDS011;49409;55.708;37.522;2022-09-19T04:52:49;1.35;;;0.98;;
63284;SDS011;49409;55.708;37.522;2022-09-19T04:55:17;1.13;;;0.93;;
63284;SDS011;49409;55.708;37.522;2022-09-19T04:57:42;1.33;;;0.70;;
63284;SDS011;49409;55.708;37.522;2022-09-19T05:00:09;1.15;;;0.60;;
63284;SDS011;49409;55.708;37.522;2022-09-19T05:02:35;0.90;;;0.85;;
63284;SDS011;49409;55.708;37.522;2022-09-19T05:05:02;1.27;;;0.90;;
63284;SDS011;49409;55.708;37.522;2022-09-19T05:07:29;0.80;;;0.80;;
63284;SDS011;49409;55.708;37.522;2022-09-19T05:09:58;1.58;;;0.80;;
63284;SDS011;49409;55.708;37.522;2022-09-19T05:12:27;1.65;;;0.82;;
63284;SDS011;49409;55.708;37.522;2022-09-19T05:14:54;2.28;;;0.60;;
63284;SDS011;49409;55.708;37.522;2022-09-19T05:17:20;0.73;;;0.73;;
63284;SDS011;49409;55.708;37.522;2022-09-19T05:19:45;0.90;;;0.80;;
63284;SDS011;49409;55.708;37.522;2022-09-19T05:22:11;1.88;;;0.68;;
63284;SDS011;49409;55.708;37.522;2022-09-19T05:24:36;1.38;;;0.75;;
63284;SDS011;49409;55.708;37.522;2022-09-19T05:27:02;2.92;;;1.02;;
63284;SDS011;49409;55.708;37.522;2022-09-19T05:29:28;2.13;;;0.80;;
63284;SDS011;49409;55.708;37.522;2022-09-19T05:31:54;0.45;;;0.43;;
63284;SDS011;49409;55.708;37.522;2022-09-19T05:36:51;0.68;;;0.50;;
63284;SDS011;49409;55.708;37.522;2022-09-19T05:39:17;1.05;;;0.70;;
63284;SDS011;49409;55.708;37.522;2022-09-19T05:41:42;1.38;;;0.98;;
63284;SDS011;49409;55.708;37.522;2022-09-19T05:44:08;1.65;;;0.73;;
63284;SDS011;49409;55.708;37.522;2022-09-19T05:46:33;2.92;;;0.90;;
63284;SDS011;49409;55.708;37.522;2022-09-19T05:48:59;1.42;;;0.88;;
63284;SDS011;49409;55.708;37.522;2022-09-19T05:51:24;1.10;;;0.75;;
63284;SDS011;49409;55.708;37.522;2022-09-19T05:53:50;2.35;;;0.80;;
63284;SDS011;49409;55.708;37.522;2022-09-19T05:56:20;1.08;;;0.75;;
63284;SDS011;49409;55.708;37.522;2022-09-19T05:58:46;0.52;;;0.52;;
63284;SDS011;49409;55.708;37.522;2022-09-19T06:01:12;0.80;;;0.70;;
63284;SDS011;49409;55.708;37.522;2022-09-19T06:03:38;1.05;;;0.70;;
63284;SDS011;49409;55.708;37.522;2022-09-19T06:06:11;1.45;;;0.70;;
63284;SDS011;49409;55.708;37.522;2022-09-19T06:08:40;1.75;;;0.73;;
63284;SDS011;49409;55.708;37.522;2022-09-19T06:11:07;1.33;;;0.70;;
63284;SDS011;49409;55.708;37.522;2022-09-19T06:13:34;0.82;;;0.75;;
63284;SDS011;49409;55.708;37.522;2022-09-19T06:16:18;0.88;;;0.70;;
63284;SDS011;49409;55.708;37.522;2022-09-19T06:18:44;1.23;;;0.60;;
63284;SDS011;49409;55.708;37.522;2022-09-19T06:21:10;0.77;;;0.73;;
63284;SDS011;49409;55.708;37.522;2022-09-19T06:23:39;0.60;;;0.60;;
63284;SDS011;49409;55.708;37.522;2022-09-19T06:26:05;0.77;;;0.40;;
63284;SDS011;49409;55.708;37.522;2022-09-19T06:28:31;0.63;;;0.60;;
63284;SDS011;49409;55.708;37.522;2022-09-19T06:31:00;1.25;;;0.68;;
63284;SDS011;49409;55.708;37.522;2022-09-19T06:33:32;0.43;;;0.43;;
63284;SDS011;49409;55.708;37.522;2022-09-19T06:35:58;0.98;;;0.63;;
63284;SDS011;49409;55.708;37.522;2022-09-19T06:38:24;1.13;;;0.70;;
63284;SDS011;49409;55.708;37.522;2022-09-19T06:40:50;1.02;;;0.40;;
63284;SDS011;49409;55.708;37.522;2022-09-19T06:43:16;0.50;;;0.50;;
63284;SDS011;49409;55.708;37.522;2022-09-19T06:45:42;1.52;;;0.57;;
63284;SDS011;49409;55.708;37.522;2022-09-19T06:48:08;0.70;;;0.50;;
63284;SDS011;49409;55.708;37.522;2022-09-19T06:50:35;2.00;;;0.60;;
63284;SDS011;49409;55.708;37.522;2022-09-19T06:53:01;0.63;;;0.50;;
63284;SDS011;49409;55.708;37.522;2022-09-19T06:55:27;0.85;;;0.70;;
63284;SDS011;49409;55.708;37.522;2022-09-19T06:57:54;1.45;;;0.60;;
63284;SDS011;49409;55.708;37.522;2022-09-19T07:00:24;2.03;;;0.30;;
63284;SDS011;49409;55.708;37.522;2022-09-19T07:02:52;0.65;;;0.30;;
63284;SDS011;49409;55.708;37.522;2022-09-19T07:05:22;1.98;;;0.50;;
63284;SDS011;49409;55.708;37.522;2022-09-19T07:07:48;0.30;;;0.30;;
63284;SDS011;49409;55.708;37.522;2022-09-19T07:10:16;1.20;;;0.50;;
63284;SDS011;49409;55.708;37.522;2022-09-19T07:12:44;0.30;;;0.30;;
63284;SDS011;49409;55.708;37.522;2022-09-19T07:15:16;0.40;;;0.40;;
63284;SDS011;49409;55.708;37.522;2022-09-19T07:17:42;1.15;;;0.45;;
63284;SDS011;49409;55.708;37.522;2022-09-19T07:20:08;0.93;;;0.55;;
63284;SDS011;49409;55.708;37.522;2022-09-19T07:22:33;0.98;;;0.22;;
63284;SDS011;49409;55.708;37.522;2022-09-19T07:25:00;0.20;;;0.20;;
63284;SDS011;49409;55.708;37.522;2022-09-19T07:27:26;0.40;;;0.22;;
63284;SDS011;49409;55.708;37.522;2022-09-19T07:29:52;1.45;;;0.30;;
63284;SDS011;49409;55.708;37.522;2022-09-19T07:32:17;0.63;;;0.52;;
63284;SDS011;49409;55.708;37.522;2022-09-19T07:34:43;0.82;;;0.60;;
63284;SDS011;49409;55.708;37.522;2022-09-19T07:37:10;0.20;;;0.20;;
63284;SDS011;49409;55.708;37.522;2022-09-19T07:39:36;0.82;;;0.43;;
63284;SDS011;49409;55.708;37.522;2022-09-19T07:42:02;0.20;;;0.20;;
63284;SDS011;49409;55.708;37.522;2022-09-19T07:44:28;0.20;;;0.17;;
63284;SDS011;49409;55.708;37.522;2022-09-19T07:46:53;1.83;;;0.40;;
63284;SDS011;49409;55.708;37.522;2022-09-19T07:49:37;0.20;;;0.20;;
63284;SDS011;49409;55.708;37.522;2022-09-19T07:52:02;0.57;;;0.22;;
63284;SDS011;49409;55.708;37.522;2022-09-19T07:54:28;0.32;;;0.32;;
63284;SDS011;49409;55.708;37.522;2022-09-19T07:56:54;0.63;;;0.50;;
63284;SDS011;49409;55.708;37.522;2022-09-19T07:59:19;1.15;;;0.50;;
63284;SDS011;49409;55.708;37.522;2022-09-19T08:01:45;0.38;;;0.30;;
63284;SDS011;49409;55.708;37.522;2022-09-19T08:04:10;0.30;;;0.30;;
63284;SDS011;49409;55.708;37.522;2022-09-19T08:06:36;0.30;;;0.30;;
63284;SDS011;49409;55.708;37.522;2022-09-19T08:09:02;2.75;;;0.43;;
63284;SDS011;49409;55.708;37.522;2022-09-19T08:11:27;1.48;;;0.45;;
63284;SDS011;49409;55.708;37.522;2022-09-19T08:13:53;0.43;;;0.40;;
63284;SDS011;49409;55.708;37.522;2022-09-19T08:16:18;1.08;;;0.40;;
63284;SDS011;49409;55.708;37.522;2022-09-19T08:18:44;0.73;;;0.45;;
63284;SDS011;49409;55.708;37.522;2022-09-19T08:21:09;2.28;;;0.35;;
63284;SDS011;49409;55.708;37.522;2022-09-19T08:23:35;0.85;;;0.50;;
63284;SDS011;49409;55.708;37.522;2022-09-19T08:26:03;1.17;;;0.52;;
63284;SDS011;49409;55.708;37.522;2022-09-19T08:28:29;0.93;;;0.40;;
63284;SDS011;49409;55.708;37.522;2022-09-19T08:31:01;0.20;;;0.20;;
63284;SDS011;49409;55.708;37.522;2022-09-19T08:33:28;1.15;;;0.57;;
63284;SDS011;49409;55.708;37.522;2022-09-19T08:35:57;0.32;;;0.32;;
63284;SDS011;49409;55.708;37.522;2022-09-19T08:38:23;1.55;;;0.40;;
63284;SDS011;49409;55.708;37.522;2022-09-19T08:49:16;1.13;;;0.43;;
63284;SDS011;49409;55.708;37.522;2022-09-19T08:58:20;0.40;;;0.30;;
63284;SDS011;49409;55.708;37.522;2022-09-19T09:00:48;1.27;;;0.65;;
63284;SDS011;49409;55.708;37.522;2022-09-19T09:03:16;0.95;;;0.47;;
63284;SDS011;49409;55.708;37.522;2022-09-19T09:17:13;1.30;;;0.75;;
63284;SDS011;49409;55.708;37.522;2022-09-19T09:22:20;0.80;;;0.40;;
63284;SDS011;49409;55.708;37.522;2022-09-19T09:25:01;0.98;;;0.80;;
63284;SDS011;49409;55.708;37.522;2022-09-19T09:27:34;0.32;;;0.32;;
63284;SDS011;49409;55.708;37.522;2022-09-19T09:30:12;1.98;;;0.70;;
63284;SDS011;49409;55.708;37.522;2022-09-19T09:32:42;0.43;;;0.43;;
63284;SDS011;49409;55.708;37.522;2022-09-19T09:35:22;2.63;;;0.50;;
63284;SDS011;49409;55.708;37.522;2022-09-19T09:37:53;0.80;;;0.35;;
63284;SDS011;49409;55.708;37.522;2022-09-19T09:43:52;1.92;;;0.68;;
63284;SDS011;49409;55.708;37.522;2022-09-19T09:49:13;0.70;;;0.47;;
63284;SDS011;49409;55.708;37.522;2022-09-19T09:57:31;0.98;;;0.40;;
63284;SDS011;49409;55.708;37.522;2022-09-19T10:00:17;1.90;;;0.50;;
63284;SDS011;49409;55.708;37.522;2022-09-19T10:03:32;0.65;;;0.35;;
63284;SDS011;49409;55.708;37.522;2022-09-19T10:06:34;1.05;;;0.40;;
63284;SDS011;49409;55.708;37.522;2022-09-19T10:09:12;0.95;;;0.30;;
63284;SDS011;49409;55.708;37.522;2022-09-19T10:14:29;0.82;;;0.40;;
63284;SDS011;49409;55.708;37.522;2022-09-19T10:16:57;3.80;;;0.40;;
63284;SDS011;49409;55.708;37.522;2022-09-19T10:19:31;0.82;;;0.40;;
63284;SDS011;49409;55.708;37.522;2022-09-19T10:22:13;0.77;;;0.40;;
63284;SDS011;49409;55.708;37.522;2022-09-19T10:24:44;0.35;;;0.32;;
63284;SDS011;49409;55.708;37.522;2022-09-19T10:30:00;1.40;;;0.50;;
63284;SDS011;49409;55.708;37.522;2022-09-19T10:32:31;0.60;;;0.20;;
63284;SDS011;49409;55.708;37.522;2022-09-19T10:43:20;1.38;;;0.50;;
63284;SDS011;49409;55.708;37.522;2022-09-19T10:46:05;1.08;;;0.50;;
63284;SDS011;49409;55.708;37.522;2022-09-19T10:48:33;1.35;;;0.40;;
63284;SDS011;49409;55.708;37.522;2022-09-19T10:51:11;0.52;;;0.47;;
63284;SDS011;49409;55.708;37.522;2022-09-19T10:53:39;0.52;;;0.52;;
63284;SDS011;49409;55.708;37.522;2022-09-19T10:56:09;1.42;;;0.50;;
63284;SDS011;49409;55.708;37.522;2022-09-19T10:58:49;0.85;;;0.60;;
63284;SDS011;49409;55.708;37.522;2022-09-19T11:01:24;2.47;;;1.42;;
63284;SDS011;49409;55.708;37.522;2022-09-19T11:04:25;0.60;;;0.60;;
63284;SDS011;49409;55.708;37.522;2022-09-19T11:06:57;1.65;;;0.50;;
63284;SDS011;49409;55.708;37.522;2022-09-19T11:09:33;2.78;;;0.80;;
63284;SDS011;49409;55.708;37.522;2022-09-19T11:12:03;1.95;;;0.68;;
63284;SDS011;49409;55.708;37.522;2022-09-19T11:14:33;1.05;;;0.65;;
63284;SDS011;49409;55.708;37.522;2022-09-19T11:22:37;3.20;;;0.40;;
63284;SDS011;49409;55.708;37.522;2022-09-19T11:25:30;2.88;;;0.55;;
63284;SDS011;49409;55.708;37.522;2022-09-19T11:39:32;0.45;;;0.43;;
63284;SDS011;49409;55.708;37.522;2022-09-19T12:07:03;1.65;;;0.38;;
63284;SDS011;49409;55.708;37.522;2022-09-19T12:12:20;0.38;;;0.38;;
63284;SDS011;49409;55.708;37.522;2022-09-19T12:14:49;0.80;;;0.25;;
63284;SDS011;49409;55.708;37.522;2022-09-19T12:17:31;0.28;;;0.25;;
63284;SDS011;49409;55.708;37.522;2022-09-19T12:26:16;0.85;;;0.30;;
63284;SDS011;49409;55.708;37.522;2022-09-19T12:28:48;0.68;;;0.40;;
63284;SDS011;49409;55.708;37.522;2022-09-19T12:31:19;0.80;;;0.50;;
63284;SDS011;49409;55.708;37.522;2022-09-19T12:36:25;0.65;;;0.40;;
63284;SDS011;49409;55.708;37.522;2022-09-19T12:39:01;0.40;;;0.40;;
63284;SDS011;49409;55.708;37.522;2022-09-19T12:41:43;1.77;;;0.68;;
63284;SDS011;49409;55.708;37.522;2022-09-19T12:50:08;0.95;;;0.30;;
63284;SDS011;49409;55.708;37.522;2022-09-19T12:52:56;1.35;;;0.35;;
63284;SDS011;49409;55.708;37.522;2022-09-19T12:55:36;1.23;;;0.50;;
63284;SDS011;49409;55.708;37.522;2022-09-19T12:58:17;0.40;;;0.30;;
63284;SDS011;49409;55.708;37.522;2022-09-19T13:00:51;0.63;;;0.30;;
63284;SDS011;49409;55.708;37.522;2022-09-19T13:03:29;1.75;;;0.32;;
63284;SDS011;49409;55.708;37.522;2022-09-19T13:06:07;1.58;;;0.50;;
63284;SDS011;49409;55.708;37.522;2022-09-19T13:09:02;0.50;;;0.30;;
63284;SDS011;49409;55.708;37.522;2022-09-19T13:11:40;0.50;;;0.25;;
63284;SDS011;49409;55.708;37.522;2022-09-19T13:14:17;3.20;;;0.43;;
63284;SDS011;49409;55.708;37.522;2022-09-19T13:16:48;0.90;;;0.50;;
63284;SDS011;49409;55.708;37.522;2022-09-19T13:19:34;0.43;;;0.30;;
63284;SDS011;49409;55.708;37.522;2022-09-19T13:22:22;1.45;;;0.30;;
63284;SDS011;49409;55.708;37.522;2022-09-19T13:25:17;0.43;;;0.20;;
63284;SDS011;49409;55.708;37.522;2022-09-19T13:27:45;3.22;;;0.60;;
63284;SDS011;49409;55.708;37.522;2022-09-19T13:33:24;0.17;;;0.17;;
63284;SDS011;49409;55.708;37.522;2022-09-19T13:35:53;1.88;;;0.25;;
63284;SDS011;49409;55.708;37.522;2022-09-19T13:38:23;0.47;;;0.30;;
63284;SDS011;49409;55.708;37.522;2022-09-19T13:41:06;1.67;;;1.30;;
63284;SDS011;49409;55.708;37.522;2022-09-19T13:46:22;0.20;;;0.10;;
63284;SDS011;49409;55.708;37.522;2022-09-19T13:51:30;0.32;;;0.20;;
63284;SDS011;49409;55.708;37.522;2022-09-19T14:10:25;0.70;;;0.30;;
63284;SDS011;49409;55.708;37.522;2022-09-19T14:12:59;0.45;;;0.25;;
63284;SDS011;49409;55.708;37.522;2022-09-19T14:23:19;1.50;;;0.52;;
63284;SDS011;49409;55.708;37.522;2022-09-19T14:25:59;1.52;;;0.30;;
63284;SDS011;49409;55.708;37.522;2022-09-19T14:28:44;0.40;;;0.40;;
63284;SDS011;49409;55.708;37.522;2022-09-19T14:48:42;0.77;;;0.40;;
63284;SDS011;49409;55.708;37.522;2022-09-19T14:54:04;1.02;;;0.40;;
63284;SDS011;49409;55.708;37.522;2022-09-19T14:56:38;0.80;;;0.40;;
63284;SDS011;49409;55.708;37.522;2022-09-19T14:59:03;1.95;;;1.33;;
63284;SDS011;49409;55.708;37.522;2022-09-19T15:01:33;0.73;;;0.32;;
63284;SDS011;49409;55.708;37.522;2022-09-19T15:06:34;0.20;;;0.20;;
63284;SDS011;49409;55.708;37.522;2022-09-19T15:09:20;0.30;;;0.30;;
63284;SDS011;49409;55.708;37.522;2022-09-19T15:11:52;1.95;;;0.70;;
63284;SDS011;49409;55.708;37.522;2022-09-19T15:14:21;0.50;;;0.50;;
63284;SDS011;49409;55.708;37.522;2022-09-19T15:17:03;1.13;;;0.40;;
63284;SDS011;49409;55.708;37.522;2022-09-19T15:20:30;0.50;;;0.20;;
63284;SDS011;49409;55.708;37.522;2022-09-19T15:22:34;0.40;;;0.30;;
63284;SDS011;49409;55.708;37.522;2022-09-19T15:25:05;0.25;;;0.25;;
63284;SDS011;49409;55.708;37.522;2022-09-19T15:27:47;0.75;;;0.40;;
63284;SDS011;49409;55.708;37.522;2022-09-19T15:30:20;0.80;;;0.38;;
63284;SDS011;49409;55.708;37.522;2022-09-19T15:32:58;1.25;;;0.30;;
63284;SDS011;49409;55.708;37.522;2022-09-19T15:35:27;1.02;;;0.30;;
63284;SDS011;49409;55.708;37.522;2022-09-19T15:38:01;0.85;;;0.30;;
63284;SDS011;49409;55.708;37.522;2022-09-19T15:40:31;1.27;;;0.20;;
63284;SDS011;49409;55.708;37.522;2022-09-19T15:42:59;1.52;;;0.50;;
63284;SDS011;49409;55.708;37.522;2022-09-19T15:47:56;1.95;;;0.40;;
63284;SDS011;49409;55.708;37.522;2022-09-19T15:50:25;2.40;;;0.50;;
63284;SDS011;49409;55.708;37.522;2022-09-19T15:52:56;0.28;;;0.28;;
63284;SDS011;49409;55.708;37.522;2022-09-19T15:55:23;0.30;;;0.30;;
63284;SDS011;49409;55.708;37.522;2022-09-19T15:57:58;1.17;;;0.20;;
63284;SDS011;49409;55.708;37.522;2022-09-19T16:00:27;1.55;;;0.30;;
63284;SDS011;49409;55.708;37.522;2022-09-19T16:02:57;0.20;;;0.20;;
63284;SDS011;49409;55.708;37.522;2022-09-19T16:05:31;0.85;;;0.45;;
63284;SDS011;49409;55.708;37.522;2022-09-19T16:07:59;1.35;;;0.30;;
63284;SDS011;49409;55.708;37.522;2022-09-19T16:10:45;0.70;;;0.43;;
63284;SDS011;49409;55.708;37.522;2022-09-19T16:16:13;0.22;;;0.22;;
63284;SDS011;49409;55.708;37.522;2022-09-19T16:18:51;0.55;;;0.20;;
63284;SDS011;49409;55.708;37.522;2022-09-19T16:21:20;0.38;;;0.20;;
63284;SDS011;49409;55.708;37.522;2022-09-19T16:23:52;0.95;;;0.28;;
63284;SDS011;49409;55.708;37.522;2022-09-19T16:26:18;0.38;;;0.28;;
63284;SDS011;49409;55.708;37.522;2022-09-19T16:28:56;0.35;;;0.20;;
63284;SDS011;49409;55.708;37.522;2022-09-19T16:31:29;0.17;;;0.17;;
63284;SDS011;49409;55.708;37.522;2022-09-19T16:34:15;1.02;;;0.90;;
63284;SDS011;49409;55.708;37.522;2022-09-19T16:36:48;0.32;;;0.20;;
63284;SDS011;49409;55.708;37.522;2022-09-19T16:39:16;0.55;;;0.13;;
63284;SDS011;49409;55.708;37.522;2022-09-19T16:46:42;0.17;;;0.17;;
63284;SDS011;49409;55.708;37.522;2022-09-19T16:49:10;0.30;;;0.30;;
63284;SDS011;49409;55.708;37.522;2022-09-19T16:51:37;0.40;;;0.20;;
63284;SDS011;49409;55.708;37.522;2022-09-19T16:54:03;0.10;;;0.10;;
63284;SDS011;49409;55.708;37.522;2022-09-19T16:56:36;0.17;;;0.17;;
63284;SDS011;49409;55.708;37.522;2022-09-19T16:59:08;0.20;;;0.20;;
63284;SDS011;49409;55.708;37.522;2022-09-19T17:01:35;0.38;;;0.20;;
63284;SDS011;49409;55.708;37.522;2022-09-19T17:04:00;0.13;;;0.13;;
63284;SDS011;49409;55.708;37.522;2022-09-19T17:06:27;1.67;;;0.20;;
63284;SDS011;49409;55.708;37.522;2022-09-19T17:08:55;1.13;;;0.20;;
63284;SDS011;49409;55.708;37.522;2022-09-19T17:11:21;0.77;;;0.20;;
63284;SDS011;49409;55.708;37.522;2022-09-19T17:13:47;0.50;;;0.25;;
63284;SDS011;49409;55.708;37.522;2022-09-19T17:16:12;0.30;;;0.10;;
63284;SDS011;49409;55.708;37.522;2022-09-19T17:18:39;0.20;;;0.20;;
63284;SDS011;49409;55.708;37.522;2022-09-19T17:21:07;0.45;;;0.20;;
63284;SDS011;49409;55.708;37.522;2022-09-19T17:23:36;0.20;;;0.20;;
63284;SDS011;49409;55.708;37.522;2022-09-19T17:26:02;1.48;;;0.20;;
63284;SDS011;49409;55.708;37.522;2022-09-19T17:28:28;0.82;;;0.40;;
63284;SDS011;49409;55.708;37.522;2022-09-19T17:30:54;0.20;;;0.20;;
63284;SDS011;49409;55.708;37.522;2022-09-19T17:33:22;0.65;;;0.13;;
63284;SDS011;49409;55.708;37.522;2022-09-19T17:35:50;0.75;;;0.10;;
63284;SDS011;49409;55.708;37.522;2022-09-19T17:38:17;0.25;;;0.25;;
63284;SDS011;49409;55.708;37.522;2022-09-19T17:40:45;0.55;;;0.30;;
63284;SDS011;49409;55.708;37.522;2022-09-19T17:43:13;0.98;;;0.50;;
63284;SDS011;49409;55.708;37.522;2022-09-19T17:45:42;0.35;;;0.30;;
63284;SDS011;49409;55.708;37.522;2022-09-19T17:48:09;0.60;;;0.35;;
63284;SDS011;49409;55.708;37.522;2022-09-19T17:50:39;0.93;;;0.55;;
63284;SDS011;49409;55.708;37.522;2022-09-19T17:53:08;0.30;;;0.30;;
63284;SDS011;49409;55.708;37.522;2022-09-19T17:55:34;1.23;;;0.68;;
63284;SDS011;49409;55.708;37.522;2022-09-19T17:58:00;0.15;;;0.13;;
63284;SDS011;49409;55.708;37.522;2022-09-19T18:00:27;0.30;;;0.30;;
63284;SDS011;49409;55.708;37.522;2022-09-19T18:02:53;0.43;;;0.43;;
63284;SDS011;49409;55.708;37.522;2022-09-19T18:05:36;0.60;;;0.50;;
63284;SDS011;49409;55.708;37.522;2022-09-19T18:08:02;0.50;;;0.40;;
63284;SDS011;49409;55.708;37.522;2022-09-19T18:10:29;0.40;;;0.30;;
63284;SDS011;49409;55.708;37.522;2022-09-19T18:12:56;0.77;;;0.30;;
63284;SDS011;49409;55.708;37.522;2022-09-19T18:18:49;0.93;;;0.30;;
63284;SDS011;49409;55.708;37.522;2022-09-19T18:21:14;0.57;;;0.47;;
63284;SDS011;49409;55.708;37.522;2022-09-19T18:23:40;0.52;;;0.50;;
63284;SDS011;49409;55.708;37.522;2022-09-19T18:26:14;0.73;;;0.28;;
63284;SDS011;49409;55.708;37.522;2022-09-19T18:28:44;0.43;;;0.43;;
63284;SDS011;49409;55.708;37.522;2022-09-19T18:31:11;1.98;;;0.40;;
63284;SDS011;49409;55.708;37.522;2022-09-19T18:33:41;1.40;;;0.57;;
63284;SDS011;49409;55.708;37.522;2022-09-19T18:36:12;0.85;;;0.50;;